createdAt,value
2019-04-11T00:02:51.165Z,11.53
2019-04-11T00:06:54.030Z,8.40
2019-04-11T00:10:55.934Z,10.47
2019-04-11T00:14:58.083Z,9.37
2019-04-11T00:19:00.088Z,11.33
2019-04-11T00:23:02.229Z,10.80
2019-04-11T00:27:04.560Z,11.63
2019-04-11T00:31:06.519Z,10.40
2019-04-11T00:35:09.235Z,11.60
2019-04-11T00:39:13.279Z,12.10
2019-04-11T00:43:28.073Z,10.63
2019-04-11T00:47:20.722Z,11.13
2019-04-11T00:51:23.561Z,10.37
2019-04-11T00:55:25.546Z,9.70
2019-04-11T00:59:28.349Z,11.50
2019-04-11T01:03:30.513Z,11.60
2019-04-11T01:07:33.175Z,10.47
2019-04-11T01:11:36.222Z,11.43
2019-04-11T01:15:40.828Z,10.73
2019-04-11T01:19:42.797Z,12.23
2019-04-11T01:23:44.926Z,11.20
2019-04-11T01:27:47.985Z,11.00
2019-04-11T01:31:51.711Z,12.13
2019-04-11T01:35:53.592Z,11.48
2019-04-11T01:40:02.040Z,11.15
2019-04-11T01:44:07.094Z,12.07
2019-04-11T01:48:21.678Z,11.35
2019-04-11T01:52:24.475Z,12.33
2019-04-11T01:56:27.347Z,9.03
2019-04-11T02:00:48.577Z,12.53
2019-04-11T02:05:02.799Z,11.67
2019-04-11T02:09:09.811Z,10.78
2019-04-11T02:13:11.984Z,12.47
2019-04-11T02:17:14.893Z,12.07
2019-04-11T02:21:35.955Z,12.50
2019-04-11T02:25:44.952Z,10.70
2019-04-11T02:29:46.885Z,12.25
2019-04-11T02:33:48.970Z,12.82
2019-04-11T02:37:52.081Z,10.47
2019-04-11T02:41:54.974Z,13.08
2019-04-11T02:46:09.810Z,12.43
2019-04-11T02:50:01.551Z,13.30
2019-04-11T02:54:04.616Z,10.93
2019-04-11T02:58:07.844Z,12.63
2019-04-11T03:02:12.974Z,12.88
2019-04-11T03:06:15.272Z,12.20
2019-04-11T03:10:18.769Z,12.37
2019-04-11T03:14:23.185Z,12.57
2019-04-11T03:18:51.337Z,12.80
2019-04-11T03:22:29.891Z,12.13
2019-04-11T03:26:33.609Z,11.80
2019-04-11T03:30:54.643Z,12.50
2019-04-11T03:39:05.729Z,9.98
2019-04-11T03:43:04.424Z,11.70
2019-04-11T03:47:08.419Z,12.23
2019-04-11T03:50:57.336Z,12.93
2019-04-11T03:55:00.446Z,13.30
2019-04-11T03:59:04.067Z,13.70
2019-04-11T04:03:06.473Z,12.17
2019-04-11T04:07:09.051Z,12.53
2019-04-11T04:11:18.884Z,13.30
2019-04-11T04:15:47.220Z,12.77
2019-04-11T04:19:54.301Z,13.03
2019-04-11T04:23:59.405Z,14.40
2019-04-11T04:28:00.449Z,11.13
2019-04-11T04:32:02.967Z,11.93
2019-04-11T04:36:10.093Z,10.47
2019-04-11T04:40:28.399Z,12.50
2019-04-11T04:44:16.991Z,10.87
2019-04-11T04:48:24.202Z,12.90
2019-04-11T04:52:25.053Z,11.87
2019-04-11T04:56:31.081Z,11.70
2019-04-11T05:00:31.937Z,12.30
2019-04-11T05:04:35.929Z,10.07
2019-04-11T05:08:39.021Z,11.80
2019-04-11T05:12:41.779Z,12.03
2019-04-11T05:16:44.219Z,13.70
2019-04-11T05:20:46.397Z,11.18
2019-04-11T05:24:48.342Z,12.13
2019-04-11T05:28:51.013Z,13.43
2019-04-11T05:32:53.479Z,14.20
2019-04-11T05:36:55.550Z,13.00
2019-04-11T05:40:58.497Z,13.60
2019-04-11T05:45:00.432Z,14.07
2019-04-11T05:49:05.324Z,12.93
2019-04-11T05:53:07.461Z,13.03
2019-04-11T05:57:11.204Z,13.63
2019-04-11T06:01:14.513Z,13.30
2019-04-11T06:05:19.268Z,14.47
2019-04-11T06:09:31.357Z,12.53
2019-04-11T06:13:48.900Z,14.40
2019-04-11T06:17:51.567Z,13.22
2019-04-11T06:21:56.067Z,14.33
2019-04-11T06:26:00.808Z,14.30
2019-04-11T06:30:24.234Z,14.00
2019-04-11T06:34:27.862Z,12.90
2019-04-11T06:38:34.410Z,14.40
2019-04-11T06:42:39.194Z,14.57
2019-04-11T06:46:55.887Z,15.73
2019-04-11T06:50:55.560Z,13.88
2019-04-11T06:55:06.698Z,14.80
2019-04-11T06:59:10.215Z,13.57
2019-04-11T07:03:22.513Z,13.30
2019-04-11T07:07:18.514Z,13.90
2019-04-11T07:11:38.450Z,14.23
2019-04-11T07:15:42.053Z,13.73
2019-04-11T07:19:57.548Z,13.57
2019-04-11T07:24:16.712Z,13.27
2019-04-11T07:28:25.258Z,15.30
2019-04-11T07:32:27.818Z,14.67
2019-04-11T07:36:48.382Z,15.03
2019-04-11T07:40:52.076Z,15.50
2019-04-11T07:45:01.591Z,16.23
2019-04-11T07:49:03.835Z,16.70
2019-04-11T07:53:08.680Z,15.70
2019-04-11T07:57:14.822Z,14.57
2019-04-11T08:01:18.994Z,15.93
2019-04-11T08:05:41.032Z,16.23
2019-04-11T08:09:54.988Z,15.65
2019-04-11T08:14:04.610Z,16.60
2019-04-11T08:18:11.089Z,14.73
2019-04-11T08:22:30.839Z,16.80
2019-04-11T08:26:50.494Z,16.67
2019-04-11T08:30:57.361Z,16.77
2019-04-11T08:35:02.002Z,15.77
2019-04-11T08:39:06.926Z,16.47
2019-04-11T08:43:10.905Z,16.03
2019-04-11T08:47:13.994Z,16.43
2019-04-11T08:51:19.038Z,16.93
2019-04-11T08:55:25.443Z,17.87
2019-04-11T08:59:29.345Z,17.20
2019-04-11T09:03:57.350Z,17.00
2019-04-11T09:08:10.001Z,16.07
2019-04-11T09:12:14.162Z,15.60
2019-04-11T09:16:21.594Z,16.97
2019-04-11T09:20:41.293Z,16.83
2019-04-11T09:25:01.696Z,18.30
2019-04-11T09:29:04.003Z,17.03
2019-04-11T09:33:17.803Z,16.90
2019-04-11T09:37:22.013Z,16.57
2019-04-11T09:41:38.615Z,17.93
2019-04-11T09:45:43.901Z,16.80
2019-04-11T09:49:47.573Z,17.90
2019-04-11T09:53:57.223Z,15.48
2019-04-11T09:58:01.259Z,17.65
2019-04-11T10:02:06.052Z,18.30
2019-04-11T10:06:32.324Z,19.13
2019-04-11T10:10:51.809Z,18.23
2019-04-11T10:14:53.720Z,18.95
2019-04-11T10:18:55.666Z,18.75
2019-04-11T10:23:16.500Z,19.00
2019-04-11T10:27:26.740Z,18.03
2019-04-11T10:31:30.598Z,19.30
2019-04-11T10:35:50.395Z,19.87
2019-04-11T10:39:53.426Z,19.07
2019-04-11T10:43:57.238Z,19.50
2019-04-11T10:47:59.319Z,19.32
2019-04-11T10:52:12.020Z,18.73
2019-04-11T10:56:32.646Z,18.27
2019-04-11T11:00:53.646Z,18.97
2019-04-11T11:04:57.179Z,18.63
2019-04-11T11:09:12.840Z,18.73
2019-04-11T11:13:32.389Z,18.57
2019-04-11T11:18:21.720Z,18.70
2019-04-11T11:21:59.899Z,17.65
2019-04-11T11:26:12.493Z,18.67
2019-04-11T11:30:23.648Z,17.30
2019-04-11T11:34:28.323Z,19.33
2019-04-11T11:38:30.333Z,18.13
2019-04-11T11:42:38.652Z,19.10
2019-04-11T11:46:42.625Z,18.00
2019-04-11T11:50:49.054Z,18.20
2019-04-11T11:54:49.889Z,18.20
2019-04-11T11:59:05.123Z,18.37
2019-04-11T12:03:12.799Z,18.83
2019-04-11T12:07:16.782Z,18.27
2019-04-11T12:11:18.807Z,17.43
2019-04-11T12:15:26.840Z,18.47
2019-04-11T12:19:43.813Z,17.67
2019-04-11T12:23:46.618Z,17.17
2019-04-11T12:27:41.514Z,17.50
2019-04-11T12:31:46.056Z,16.53
2019-04-11T12:35:52.794Z,17.12
2019-04-11T12:40:12.533Z,17.15
2019-04-11T12:44:30.308Z,17.57
2019-04-11T12:48:34.114Z,17.00
2019-04-11T12:52:40.605Z,15.77
2019-04-11T12:56:54.474Z,17.35
2019-04-11T13:01:06.928Z,16.90
2019-04-11T13:05:10.631Z,15.60
2019-04-11T13:09:18.448Z,16.77
2019-04-11T13:13:38.497Z,14.93
2019-04-11T13:17:58.091Z,15.00
2019-04-11T13:22:01.656Z,16.33
2019-04-11T13:26:21.834Z,15.27
2019-04-11T13:30:41.713Z,15.10
2019-04-11T13:34:45.265Z,14.43
2019-04-11T13:38:47.235Z,16.23
2019-04-11T13:43:06.662Z,16.45
2019-04-11T13:47:26.608Z,14.80
2019-04-11T13:51:31.210Z,15.40
2019-04-11T13:55:33.303Z,16.40
2019-04-11T13:59:35.009Z,15.20
2019-04-11T14:03:55.014Z,14.27
2019-04-11T14:07:58.501Z,15.77
2019-04-11T14:12:00.438Z,15.20
2019-04-11T14:16:19.030Z,14.83
2019-04-11T14:20:29.505Z,15.60
2019-04-11T14:24:33.754Z,16.47
2019-04-11T14:28:37.323Z,15.40
2019-04-11T14:32:45.017Z,14.67
2019-04-11T14:36:49.837Z,14.43
2019-04-11T14:41:01.601Z,15.03
2019-04-11T14:44:58.061Z,15.33
2019-04-11T14:49:00.261Z,13.83
2019-04-11T14:53:03.818Z,15.13
2019-04-11T14:57:18.125Z,14.50
2019-04-11T15:01:23.669Z,15.03
2019-04-11T15:05:28.085Z,15.27
2019-04-11T15:09:38.499Z,14.63
2019-04-11T15:13:42.071Z,14.50
2019-04-11T15:17:44.082Z,12.43
2019-04-11T15:21:54.849Z,13.60
2019-04-11T15:26:08.206Z,14.43
2019-04-11T15:30:21.715Z,12.43
2019-04-11T15:34:23.419Z,13.37
2019-04-11T15:38:33.868Z,14.67
2019-04-11T15:42:50.619Z,14.63
2019-04-11T15:46:54.008Z,14.28
2019-04-11T15:51:13.701Z,14.18
2019-04-11T15:55:37.530Z,13.37
2019-04-11T15:59:38.189Z,15.10
2019-04-11T16:03:40.102Z,13.63
2019-04-11T16:08:03.374Z,14.53
2019-04-11T16:12:09.847Z,14.97
2019-04-11T16:16:12.643Z,13.70
2019-04-11T16:20:17.749Z,12.20
2019-04-11T16:24:27.372Z,15.33
2019-04-11T16:28:31.477Z,13.80
2019-04-11T16:32:35.047Z,14.17
2019-04-11T16:36:38.773Z,14.07
2019-04-11T16:40:58.606Z,14.27
2019-04-11T16:45:09.484Z,14.67
2019-04-11T16:49:11.386Z,13.37
2019-04-11T16:53:13.317Z,13.23
2019-04-11T16:57:15.219Z,14.37
2019-04-11T17:01:17.133Z,13.10
2019-04-11T17:05:19.044Z,12.87
2019-04-11T17:09:26.589Z,12.03
2019-04-11T17:13:26.794Z,12.30
2019-04-11T17:17:30.566Z,13.73
2019-04-11T17:21:42.717Z,13.50
2019-04-11T17:25:35.930Z,13.53
2019-04-11T17:29:38.634Z,10.57
2019-04-11T17:34:01.851Z,13.32
2019-04-11T17:38:22.418Z,14.13
2019-04-11T17:42:24.341Z,13.93
2019-04-11T17:46:26.998Z,12.23
2019-04-11T17:50:29.420Z,13.57
2019-04-11T17:54:31.315Z,11.97
2019-04-11T17:58:33.333Z,13.90
2019-04-11T18:02:36.216Z,20.33
2019-04-11T18:06:38.591Z,9.73
2019-04-11T18:10:40.501Z,11.80
2019-04-11T18:14:42.408Z,17.73
2019-04-11T18:18:44.332Z,13.77
2019-04-11T18:22:50.113Z,10.97
2019-04-11T18:26:51.928Z,10.90
2019-04-11T18:30:54.087Z,9.28
2019-04-11T18:34:56.630Z,11.03
2019-04-11T18:39:02.051Z,10.90
2019-04-11T18:43:03.766Z,17.23
2019-04-11T18:47:05.737Z,16.20
2019-04-11T18:51:07.727Z,12.10
2019-04-11T18:55:09.996Z,12.13
2019-04-11T18:59:11.910Z,11.90
2019-04-11T19:03:14.448Z,10.07
2019-04-11T19:07:27.394Z,10.40
2019-04-11T19:11:19.989Z,10.57
2019-04-11T19:15:21.887Z,9.97
2019-04-11T19:19:23.807Z,9.80
2019-04-11T19:23:25.715Z,9.28
2019-04-11T19:27:27.606Z,9.13
2019-04-11T19:31:29.587Z,9.83
2019-04-11T19:35:31.495Z,9.27
2019-04-11T19:39:33.402Z,9.07
2019-04-11T19:43:35.305Z,9.03
2019-04-11T19:47:37.201Z,9.00
2019-04-11T19:51:39.106Z,9.10
2019-04-11T19:55:46.569Z,9.07
2019-04-11T19:59:48.472Z,9.33
2019-04-11T20:03:53.749Z,6.60
2019-04-11T20:07:53.969Z,9.00
2019-04-11T20:11:59.924Z,9.55
2019-04-11T20:15:59.590Z,9.70
2019-04-11T20:20:06.306Z,9.30
2019-04-11T20:24:06.342Z,9.53
2019-04-11T20:28:08.287Z,9.00
2019-04-11T20:32:10.143Z,8.87
2019-04-11T20:36:12.072Z,9.47
2019-04-11T20:40:17.218Z,8.33
2019-04-11T20:44:17.631Z,9.07
2019-04-11T20:48:19.511Z,9.47
2019-04-11T20:52:21.440Z,8.63
2019-04-11T20:56:24.573Z,9.17
2019-04-11T21:00:27.590Z,8.60
2019-04-11T21:04:31.323Z,8.93
2019-04-11T21:08:33.929Z,7.67
2019-04-11T21:12:37.374Z,8.05
2019-04-11T21:16:39.917Z,8.47
2019-04-11T21:20:41.820Z,8.43
2019-04-11T21:24:43.724Z,6.87
2019-04-11T21:28:45.620Z,6.77
2019-04-11T21:32:47.534Z,7.53
2019-04-11T21:36:49.425Z,8.43
2019-04-11T21:40:51.334Z,8.20
2019-04-11T21:44:53.231Z,8.10
2019-04-11T21:48:55.170Z,6.28
2019-04-11T21:52:57.134Z,6.67
2019-04-11T21:56:59.048Z,7.90
2019-04-11T22:01:05.603Z,7.00
2019-04-11T22:05:07.934Z,8.00
2019-04-11T22:09:10.109Z,6.37
2019-04-11T22:13:13.630Z,7.33
2019-04-11T22:17:16.162Z,8.37
2019-04-11T22:21:19.019Z,7.70
2019-04-11T22:25:20.926Z,8.30
2019-04-11T22:29:25.022Z,7.23
2019-04-11T22:33:33.012Z,8.50
2019-04-11T22:37:34.926Z,7.67
2019-04-11T22:41:36.830Z,5.93
2019-04-11T22:45:38.907Z,7.42
2019-04-11T22:49:40.897Z,7.00
2019-04-11T22:53:43.332Z,7.53
2019-04-11T22:57:45.791Z,5.57
2019-04-11T23:01:49.538Z,7.93
2019-04-11T23:05:51.463Z,7.45
2019-04-11T23:09:53.364Z,5.47
2019-04-11T23:13:55.267Z,7.90
2019-04-11T23:17:57.169Z,6.13
2019-04-11T23:22:00.037Z,7.37
2019-04-11T23:26:02.051Z,5.50
2019-04-11T23:30:12.617Z,6.57
2019-04-11T23:34:14.522Z,6.27
2019-04-11T23:38:16.438Z,6.43
2019-04-11T23:42:19.737Z,6.97
2019-04-11T23:46:22.165Z,6.03
2019-04-11T23:50:25.359Z,7.00
2019-04-11T23:54:29.330Z,6.70
2019-04-11T23:58:32.676Z,6.77
